LPMA

Details ICAO LPMA (FNC)
Name Madeira
Region Portugal
Timezone Atlantic/Madeira (UTC+0.0)
Plans Departing 780
Arriving 1322
Stats Elevation 192 ft / 59 m (AMSL)
Location 32.697704° -16.774449°
Runways 1
Magnetic Variation 4.982° W
Sunrise 2017-12-14 08:02:41 UTC / 2017-12-14 08:02:41 Local
Sunset 2017-12-14 18:03:43 UTC / 2017-12-14 18:03:43 Local
Advertisement - Login to hide

Runways

ID Width Length Bearing (true) Bearing (mag) Surface Threshold Offset Overrun Length
05 141 ft / 43 m 8,683 ft / 2,647 m 42.98° 47.96° Asphalt 472 ft / 144 m 0 ft / 0 m
23 141 ft / 43 m 8,683 ft / 2,647 m 222.99° 227.97° Asphalt 466 ft / 142 m 0 ft / 0 m

Map

Weather


0- 5 10 15 20 25 30 35+ Temperature / ° C

Clouds and Precipitation
Forecast for 2017-12-15 00:00 UTC. Updated 6 minutes ago

Ground ~20,000 ft ~40,000 ft Winds

METAR

LPMA 142100Z VRB03KT 9999 FEW016 18/12 Q1028

TAF

TAF LPMA 141700Z 1418/1518 01010KT 9999 SCT015 TEMPO 1418/1518 BKN015

Frequencies

Tower 118.35 MHz TWR
Approach 119.20 MHz APP
Warning: Do not use this data for real-world aviation or navigation. No guarantee of current accuracy is given.